createdAt,value
2023-01-07T00:01:58.796Z,101473.00
2023-01-07T00:04:25.598Z,101462.13
2023-01-07T00:06:52.557Z,101477.34
2023-01-07T00:09:19.402Z,101486.97
2023-01-07T00:11:46.164Z,101465.03
2023-01-07T00:14:14.080Z,101491.69
2023-01-07T00:16:43.244Z,101470.91
2023-01-07T00:19:13.882Z,101496.44
2023-01-07T00:21:41.446Z,101302.34
2023-01-07T00:24:11.143Z,101496.50
2023-01-07T00:26:38.804Z,101492.81
2023-01-07T00:29:06.665Z,101391.94
2023-01-07T00:31:35.622Z,101491.50
2023-01-07T00:34:04.799Z,101459.44
2023-01-07T00:36:33.898Z,101479.06
2023-01-07T00:39:02.801Z,101454.63
2023-01-07T00:41:29.514Z,101486.78
2023-01-07T00:43:56.783Z,101466.69
2023-01-07T00:46:24.109Z,101469.81
2023-01-07T00:48:51.114Z,101462.91
2023-01-07T00:51:19.393Z,101468.56
2023-01-07T00:53:46.840Z,101436.44
2023-01-07T00:56:15.059Z,101469.13
2023-01-07T00:58:42.374Z,101448.19
2023-01-07T01:01:09.947Z,101464.16
2023-01-07T01:03:37.300Z,101411.44
2023-01-07T01:06:05.662Z,101457.81
2023-01-07T01:08:34.174Z,101322.53
2023-01-07T01:11:05.760Z,101470.94
2023-01-07T01:13:32.784Z,101339.19
2023-01-07T01:15:59.826Z,101463.94
2023-01-07T01:18:27.135Z,101448.00
2023-01-07T01:20:54.000Z,101312.19
2023-01-07T01:23:20.967Z,101345.69
2023-01-07T01:25:49.399Z,101371.69
2023-01-07T01:28:16.167Z,101420.47
2023-01-07T01:30:42.952Z,101365.06
2023-01-07T01:33:09.729Z,101302.38
2023-01-07T01:35:40.042Z,101441.94
2023-01-07T01:38:07.070Z,101454.69
2023-01-07T01:40:36.845Z,101358.66
2023-01-07T01:43:05.043Z,101434.63
2023-01-07T01:45:32.182Z,101448.22
2023-01-07T01:48:04.970Z,101337.06
2023-01-07T01:50:35.053Z,101426.03
2023-01-07T01:53:05.658Z,101315.72
2023-01-07T01:55:36.446Z,101388.03
2023-01-07T01:58:08.003Z,101459.06
2023-01-07T02:00:36.131Z,101311.28
2023-01-07T02:03:06.854Z,101436.84
2023-01-07T02:05:40.437Z,101445.28
2023-01-07T02:08:07.473Z,101444.22
2023-01-07T02:10:34.435Z,101439.84
2023-01-07T02:13:23.395Z,101445.84
2023-01-07T02:15:56.074Z,101439.38
2023-01-07T02:18:40.662Z,101284.78
2023-01-07T02:21:22.029Z,101436.63
2023-01-07T02:24:22.364Z,101392.53
2023-01-07T02:27:13.978Z,101429.56
2023-01-07T02:29:59.094Z,101424.69
2023-01-07T02:32:35.971Z,101429.31
2023-01-07T02:35:12.290Z,101399.75
2023-01-07T02:37:50.827Z,101263.69
2023-01-07T02:40:24.320Z,101249.81
2023-01-07T02:43:03.933Z,101430.97
2023-01-07T02:45:35.977Z,101431.78
2023-01-07T02:48:08.324Z,101306.09
2023-01-07T02:50:35.520Z,101344.28
2023-01-07T02:53:02.480Z,101434.50
2023-01-07T02:55:39.469Z,101282.78
2023-01-07T02:58:35.534Z,101428.53
2023-01-07T03:01:34.609Z,101423.97
2023-01-07T03:04:20.687Z,101390.53
2023-01-07T03:06:59.615Z,101401.06
2023-01-07T03:09:37.437Z,101340.72
2023-01-07T03:12:13.135Z,101225.97
2023-01-07T03:14:45.880Z,101428.53
2023-01-07T03:17:18.372Z,101275.44
2023-01-07T03:19:52.561Z,101232.50
2023-01-07T03:22:22.506Z,101422.56
2023-01-07T03:24:53.019Z,101235.44
2023-01-07T03:27:22.308Z,101230.03
2023-01-07T03:29:50.582Z,101375.63
2023-01-07T03:32:24.484Z,101367.78
2023-01-07T03:34:53.395Z,101268.41
2023-01-07T03:37:22.700Z,101392.22
2023-01-07T03:39:52.798Z,101294.25
2023-01-07T03:42:22.722Z,101255.09
2023-01-07T03:44:49.496Z,101376.97
2023-01-07T03:47:16.575Z,101353.59
2023-01-07T03:49:43.492Z,101290.50
2023-01-07T03:52:11.909Z,101326.94
2023-01-07T03:54:38.986Z,101263.91
2023-01-07T03:57:05.767Z,101366.66
2023-01-07T03:59:32.700Z,101356.88
2023-01-07T04:01:59.578Z,101353.03
2023-01-07T04:04:26.464Z,101373.69
2023-01-07T04:06:53.421Z,101359.00
2023-01-07T04:09:21.611Z,101336.47
2023-01-07T04:11:48.595Z,101273.03
2023-01-07T04:14:15.449Z,101200.06
2023-01-07T04:16:42.236Z,101359.53
2023-01-07T04:19:09.551Z,101275.75
2023-01-07T04:21:36.447Z,101254.28
2023-01-07T04:24:03.231Z,101239.22
2023-01-07T04:26:31.350Z,101231.50
2023-01-07T04:28:58.052Z,101220.88
2023-01-07T04:31:24.913Z,101368.75
2023-01-07T04:33:51.623Z,101170.50
2023-01-07T04:36:18.347Z,101290.75
2023-01-07T04:38:45.157Z,101314.44
2023-01-07T04:41:11.935Z,101341.09
2023-01-07T04:43:40.134Z,101280.31
2023-01-07T04:46:07.007Z,101304.84
2023-01-07T04:48:33.908Z,101319.44
2023-01-07T04:51:01.093Z,101345.41
2023-01-07T04:53:27.906Z,101332.13
2023-01-07T04:55:54.804Z,101322.03
2023-01-07T04:58:22.341Z,101191.63
2023-01-07T05:00:50.542Z,101167.69
2023-01-07T05:03:17.375Z,101340.28
2023-01-07T05:05:45.393Z,101324.88
2023-01-07T05:08:12.423Z,101266.09
2023-01-07T05:10:39.191Z,101263.44
2023-01-07T05:13:07.056Z,101192.09
2023-01-07T05:15:34.089Z,101333.28
2023-01-07T05:18:02.627Z,101233.91
2023-01-07T05:20:29.402Z,101212.47
2023-01-07T05:22:56.490Z,101333.47
2023-01-07T05:25:23.284Z,101220.75
2023-01-07T05:27:50.442Z,101137.34
2023-01-07T05:30:17.281Z,101304.84
2023-01-07T05:32:44.310Z,101153.00
2023-01-07T05:35:12.737Z,101136.19
2023-01-07T05:37:39.582Z,101258.22
2023-01-07T05:40:07.703Z,101284.66
2023-01-07T05:42:34.691Z,101294.72
2023-01-07T05:45:01.814Z,101144.88
2023-01-07T05:47:28.544Z,101215.88
2023-01-07T05:49:55.318Z,101165.84
2023-01-07T05:52:23.564Z,101306.63
2023-01-07T05:54:50.447Z,101128.88
2023-01-07T05:57:17.604Z,101234.16
2023-01-07T05:59:44.951Z,101168.81
2023-01-07T06:02:11.721Z,101188.66
2023-01-07T06:04:38.746Z,101132.94
2023-01-07T06:07:06.085Z,101120.94
2023-01-07T06:09:34.283Z,101124.84
2023-01-07T06:12:01.330Z,101293.03
2023-01-07T06:14:28.295Z,101213.53
2023-01-07T06:16:55.122Z,101295.19
2023-01-07T06:19:22.179Z,101204.56
2023-01-07T06:21:49.171Z,101199.81
2023-01-07T06:24:15.869Z,101111.16
2023-01-07T06:26:44.125Z,101271.59
2023-01-07T06:29:11.127Z,101160.16
2023-01-07T06:31:38.141Z,101255.63
2023-01-07T06:34:04.952Z,101234.53
2023-01-07T06:36:31.952Z,101256.38
2023-01-07T06:38:59.191Z,101181.00
2023-01-07T06:41:26.873Z,101219.69
2023-01-07T06:43:55.115Z,101246.94
2023-01-07T06:46:22.030Z,101146.63
2023-01-07T06:48:49.062Z,101181.16
2023-01-07T06:51:16.226Z,101134.19
2023-01-07T06:53:42.982Z,101085.88
2023-01-07T06:56:09.703Z,101225.56
2023-01-07T06:58:37.231Z,101242.59
2023-01-07T07:01:07.007Z,101167.28
2023-01-07T07:03:34.134Z,101218.63
2023-01-07T07:06:01.548Z,101231.97
2023-01-07T07:08:28.573Z,101174.25
2023-01-07T07:10:55.807Z,101130.03
2023-01-07T07:13:22.617Z,101062.53
2023-01-07T07:15:49.673Z,101195.09
2023-01-07T07:18:18.148Z,101229.66
2023-01-07T07:20:46.626Z,101201.72
2023-01-07T07:23:13.405Z,101169.38
2023-01-07T07:25:43.729Z,101200.31
2023-01-07T07:28:10.967Z,101116.59
2023-01-07T07:30:46.735Z,101096.75
2023-01-07T07:33:15.205Z,101224.47
2023-01-07T07:35:44.204Z,101066.88
2023-01-07T07:38:10.940Z,101209.06
2023-01-07T07:40:37.999Z,101163.72
2023-01-07T07:43:10.303Z,101083.91
2023-01-07T07:45:39.563Z,101179.13
2023-01-07T07:48:07.491Z,101115.34
2023-01-07T07:50:34.888Z,101143.06
2023-01-07T07:53:03.337Z,101201.81
2023-01-07T07:55:30.099Z,101153.31
2023-01-07T07:57:57.479Z,101167.03
2023-01-07T08:00:24.582Z,101176.22
2023-01-07T08:02:51.445Z,101072.88
2023-01-07T08:05:18.364Z,101030.25
2023-01-07T08:07:45.203Z,101190.81
2023-01-07T08:10:13.335Z,101133.28
2023-01-07T08:12:40.377Z,101196.22
2023-01-07T08:15:08.308Z,101205.47
2023-01-07T08:17:35.361Z,101200.78
2023-01-07T08:20:02.309Z,101083.81
2023-01-07T08:22:28.975Z,101009.16
2023-01-07T08:24:55.691Z,101182.38
2023-01-07T08:27:23.832Z,101154.34
2023-01-07T08:29:50.681Z,101112.88
2023-01-07T08:32:17.666Z,101138.66
2023-01-07T08:34:44.482Z,101185.97
2023-01-07T08:37:11.350Z,101066.75
2023-01-07T08:39:38.327Z,101188.63
2023-01-07T08:42:05.553Z,101113.09
2023-01-07T08:44:33.804Z,101112.16
2023-01-07T08:47:00.729Z,101060.81
2023-01-07T08:49:27.599Z,101089.38
2023-01-07T08:51:54.441Z,101159.13
2023-01-07T08:54:22.611Z,101066.50
2023-01-07T08:56:49.409Z,100953.69
2023-01-07T08:59:16.494Z,100975.94
2023-01-07T09:01:44.673Z,101171.66
2023-01-07T09:04:11.751Z,101057.59
2023-01-07T09:06:39.076Z,101161.41
2023-01-07T09:09:06.634Z,101063.00
2023-01-07T09:11:37.269Z,101157.94
2023-01-07T09:14:04.139Z,101028.44
2023-01-07T09:16:30.974Z,100954.94
2023-01-07T09:18:59.079Z,101062.38
2023-01-07T09:21:25.900Z,101056.06
2023-01-07T09:23:53.127Z,101026.56
2023-01-07T09:26:19.943Z,101014.34
2023-01-07T09:28:47.189Z,101053.13
2023-01-07T09:31:14.179Z,101096.00
2023-01-07T09:33:41.210Z,101117.22
2023-01-07T09:36:09.997Z,101033.28
2023-01-07T09:38:37.161Z,101135.22
2023-01-07T09:41:04.241Z,101137.00
2023-01-07T09:44:00.714Z,101110.19
2023-01-07T09:46:23.645Z,101023.28
2023-01-07T09:48:54.266Z,101012.25
2023-01-07T09:51:27.675Z,101077.56
2023-01-07T09:53:57.723Z,101087.72
2023-01-07T09:56:28.197Z,101062.09
2023-01-07T09:58:56.960Z,101002.72
2023-01-07T10:01:31.399Z,101123.75
2023-01-07T10:04:22.463Z,101073.88
2023-01-07T10:06:59.214Z,101037.44
2023-01-07T10:09:35.999Z,101035.38
2023-01-07T10:12:12.010Z,101036.44
2023-01-07T10:15:01.745Z,101126.91
2023-01-07T10:17:44.789Z,101124.47
2023-01-07T10:20:22.050Z,101119.06
2023-01-07T10:22:54.133Z,101071.31
2023-01-07T10:25:25.015Z,100995.59
2023-01-07T10:27:57.477Z,101009.47
2023-01-07T10:30:26.727Z,101030.44
2023-01-07T10:33:00.711Z,101085.91
2023-01-07T10:35:29.265Z,100945.19
2023-01-07T10:38:02.204Z,100997.84
2023-01-07T10:40:40.202Z,101066.84
2023-01-07T10:43:18.439Z,100902.53
2023-01-07T10:45:56.911Z,101066.66
2023-01-07T10:48:40.834Z,100899.91
2023-01-07T10:51:18.045Z,100990.00
2023-01-07T10:53:57.555Z,101018.78
2023-01-07T10:56:29.606Z,101047.53
2023-01-07T10:58:56.597Z,100964.03
2023-01-07T11:01:27.471Z,100960.34
2023-01-07T11:03:56.496Z,100888.84
2023-01-07T11:06:34.365Z,101014.38
2023-01-07T11:09:04.812Z,100985.94
2023-01-07T11:14:53.625Z,100943.19
2023-01-07T11:17:31.602Z,101005.75
2023-01-07T11:19:58.791Z,100995.47
2023-01-07T11:22:31.166Z,100978.41
2023-01-07T11:25:01.211Z,100961.63
2023-01-07T11:27:31.435Z,100798.72
2023-01-07T11:30:02.266Z,100832.78
2023-01-07T11:32:31.607Z,100865.03
2023-01-07T11:35:01.152Z,100871.25
2023-01-07T11:37:34.440Z,100903.19
2023-01-07T11:40:16.732Z,100849.06
2023-01-07T11:42:48.152Z,100875.59
2023-01-07T11:45:15.841Z,100945.94
2023-01-07T11:47:47.980Z,100929.69
2023-01-07T11:50:23.608Z,100833.66
2023-01-07T11:53:01.667Z,100861.53
2023-01-07T11:55:30.637Z,100828.25
2023-01-07T11:58:27.743Z,100915.38
2023-01-07T12:00:46.425Z,100826.38
2023-01-07T12:03:14.433Z,100889.13
2023-01-07T12:05:44.429Z,100886.69
2023-01-07T12:08:20.216Z,100886.16
2023-01-07T12:10:55.323Z,100840.16
2023-01-07T12:13:24.898Z,100686.88
2023-01-07T12:15:54.165Z,100786.31
2023-01-07T12:18:51.807Z,100771.69
2023-01-07T12:21:32.395Z,100818.69
2023-01-07T12:24:31.469Z,100790.75
2023-01-07T12:27:10.493Z,100828.22
2023-01-07T12:29:49.991Z,100811.84
2023-01-07T12:32:32.560Z,100706.22
2023-01-07T12:35:14.936Z,100722.25
2023-01-07T12:37:46.136Z,100789.94
2023-01-07T12:40:30.505Z,100773.81
2023-01-07T12:43:04.868Z,100803.13
2023-01-07T12:45:43.485Z,100714.31
2023-01-07T12:48:19.745Z,100727.03
2023-01-07T12:50:50.409Z,100687.78
2023-01-07T12:53:27.530Z,100724.25
2023-01-07T12:55:59.342Z,100727.69
2023-01-07T12:58:43.004Z,100778.66
2023-01-07T13:01:19.441Z,100716.09
2023-01-07T13:04:05.213Z,100625.28
2023-01-07T13:06:43.314Z,100611.41
2023-01-07T13:09:49.384Z,100766.91
2023-01-07T13:12:41.015Z,100611.84
2023-01-07T13:15:23.775Z,100730.09
2023-01-07T13:17:54.974Z,100756.81
2023-01-07T13:20:37.419Z,100581.31
2023-01-07T13:23:05.776Z,100609.16
2023-01-07T13:25:51.740Z,100717.28
2023-01-07T13:28:44.591Z,100630.59
2023-01-07T13:31:32.261Z,100703.78
2023-01-07T13:34:10.797Z,100751.09
2023-01-07T13:36:47.854Z,100740.59
2023-01-07T13:39:38.031Z,100673.41
2023-01-07T13:42:20.425Z,100611.63
2023-01-07T13:45:01.017Z,100715.53
2023-01-07T13:47:38.858Z,100651.31
2023-01-07T13:50:17.007Z,100714.72
2023-01-07T13:52:43.887Z,100523.94
2023-01-07T13:55:33.468Z,100689.91
2023-01-07T13:58:00.863Z,100616.00
2023-01-07T14:01:08.918Z,100544.22
2023-01-07T14:03:41.376Z,100659.13
2023-01-07T14:06:37.929Z,100663.69
2023-01-07T14:09:23.874Z,100587.88
2023-01-07T14:12:31.983Z,100668.34
2023-01-07T14:15:22.422Z,100532.88
2023-01-07T14:18:01.973Z,100544.47
2023-01-07T14:20:43.623Z,100563.59
2023-01-07T14:23:25.357Z,100646.22
2023-01-07T14:26:11.613Z,100465.41
2023-01-07T14:29:06.187Z,100643.78
2023-01-07T14:31:33.179Z,100610.56
2023-01-07T14:34:03.708Z,100617.59
2023-01-07T14:37:03.646Z,100596.56
2023-01-07T14:39:33.419Z,100554.78
2023-01-07T14:42:48.848Z,100621.44
2023-01-07T14:45:54.047Z,100615.50
2023-01-07T14:48:32.557Z,100575.25
2023-01-07T14:51:28.514Z,100605.25
2023-01-07T14:54:09.402Z,100614.44
2023-01-07T14:56:51.596Z,100606.84
2023-01-07T14:59:37.839Z,100598.53
2023-01-07T15:02:46.267Z,100605.28
2023-01-07T15:05:58.465Z,100531.03
2023-01-07T15:08:29.219Z,100520.22
2023-01-07T15:10:58.907Z,100532.91
2023-01-07T15:13:30.372Z,100595.00
2023-01-07T15:15:57.966Z,100572.34
2023-01-07T15:18:25.391Z,100515.38
2023-01-07T15:21:04.028Z,100577.25
2023-01-07T15:23:41.373Z,100464.66
2023-01-07T15:26:16.967Z,100571.78
2023-01-07T15:28:50.412Z,100579.88
2023-01-07T15:31:24.499Z,100517.00
2023-01-07T15:34:12.748Z,100574.47
2023-01-07T15:36:42.585Z,100577.75
2023-01-07T15:39:18.419Z,100562.91
2023-01-07T15:41:46.042Z,100568.00
2023-01-07T15:44:20.525Z,100496.75
2023-01-07T15:46:47.433Z,100391.03
2023-01-07T15:49:20.957Z,100561.78
2023-01-07T15:51:49.578Z,100430.91
2023-01-07T15:54:30.356Z,100409.34
2023-01-07T15:57:01.049Z,100535.09
2023-01-07T15:59:34.496Z,100513.50
2023-01-07T16:02:06.176Z,100475.69
2023-01-07T16:04:35.800Z,100550.97
2023-01-07T16:07:03.185Z,100497.78
2023-01-07T16:09:30.961Z,100520.50
2023-01-07T16:11:59.159Z,100518.84
2023-01-07T16:14:26.925Z,100518.03
2023-01-07T16:17:14.678Z,100449.53
2023-01-07T16:19:41.946Z,100500.50
2023-01-07T16:22:13.734Z,100441.94
2023-01-07T16:24:48.118Z,100420.91
2023-01-07T16:27:16.382Z,100376.94
2023-01-07T16:29:50.805Z,100406.06
2023-01-07T16:32:20.574Z,100511.00
2023-01-07T16:35:01.968Z,100391.25
2023-01-07T16:37:31.419Z,100501.53
2023-01-07T16:39:58.994Z,100454.88
2023-01-07T16:42:28.991Z,100479.19
2023-01-07T16:45:01.794Z,100474.84
2023-01-07T16:47:32.070Z,100340.84
2023-01-07T16:50:19.582Z,100486.41
2023-01-07T16:52:51.419Z,100485.88
2023-01-07T16:55:51.155Z,100474.00
2023-01-07T16:58:27.462Z,100491.28
2023-01-07T17:00:56.798Z,100484.25
2023-01-07T17:03:26.221Z,100432.47
2023-01-07T17:06:02.774Z,100483.72
2023-01-07T17:08:30.519Z,100475.09
2023-01-07T17:11:21.076Z,100313.63
2023-01-07T17:13:50.653Z,100424.38
2023-01-07T17:16:31.885Z,100465.38
2023-01-07T17:19:24.292Z,100461.34
2023-01-07T17:21:55.277Z,100436.00
2023-01-07T17:24:45.922Z,100452.97
2023-01-07T17:27:26.517Z,100429.78
2023-01-07T17:29:53.594Z,100314.41
2023-01-07T17:32:21.234Z,100310.38
2023-01-07T17:34:49.808Z,100445.41
2023-01-07T17:37:19.993Z,100351.53
2023-01-07T17:39:47.019Z,100437.28
2023-01-07T17:42:20.409Z,100290.97
2023-01-07T17:44:47.309Z,100278.81
2023-01-07T17:47:16.187Z,100257.03
2023-01-07T17:49:46.268Z,100438.38
2023-01-07T17:52:14.388Z,100323.81
2023-01-07T17:54:44.133Z,100426.00
2023-01-07T17:57:12.123Z,100328.97
2023-01-07T17:59:40.356Z,100447.31
2023-01-07T18:02:18.749Z,100423.31
2023-01-07T18:04:46.288Z,100351.63
2023-01-07T18:07:20.099Z,100428.16
2023-01-07T18:09:47.025Z,100358.34
2023-01-07T18:12:17.947Z,100424.13
2023-01-07T18:14:44.781Z,100328.72
2023-01-07T18:17:11.896Z,100416.84
2023-01-07T18:19:38.693Z,100296.66
2023-01-07T18:22:05.570Z,100301.25
2023-01-07T18:24:33.814Z,100323.88
2023-01-07T18:27:00.966Z,100421.72
2023-01-07T18:29:27.890Z,100369.41
2023-01-07T18:31:54.867Z,100391.00
2023-01-07T18:34:21.800Z,100281.56
2023-01-07T18:36:48.567Z,100316.03
2023-01-07T18:39:19.139Z,100320.09
2023-01-07T18:41:48.194Z,100285.63
2023-01-07T18:44:15.040Z,100272.13
2023-01-07T18:46:42.700Z,100394.75
2023-01-07T18:49:10.642Z,100390.66
2023-01-07T18:51:37.424Z,100375.28
2023-01-07T18:54:04.637Z,100348.91
2023-01-07T18:56:31.458Z,100302.03
2023-01-07T18:58:59.792Z,100175.69
2023-01-07T19:01:26.702Z,100365.84
2023-01-07T19:03:54.924Z,100275.31
2023-01-07T19:06:22.131Z,100375.28
2023-01-07T19:08:52.156Z,100372.56
2023-01-07T19:11:18.991Z,100192.16
2023-01-07T19:13:47.069Z,100279.41
2023-01-07T19:16:15.645Z,100290.16
2023-01-07T19:18:42.418Z,100282.59
2023-01-07T19:21:12.603Z,100222.28
2023-01-07T19:23:39.354Z,100256.22
2023-01-07T19:26:12.249Z,100302.03
2023-01-07T19:28:39.194Z,100364.22
2023-01-07T19:31:08.082Z,100358.84
2023-01-07T19:33:36.965Z,100349.66
2023-01-07T19:36:08.299Z,100355.56
2023-01-07T19:38:38.672Z,100362.34
2023-01-07T19:41:08.706Z,100336.47
2023-01-07T19:43:35.721Z,100258.63
2023-01-07T19:46:03.756Z,100247.06
2023-01-07T19:48:30.628Z,100242.75
2023-01-07T19:50:59.969Z,100330.00
2023-01-07T19:53:28.254Z,100215.81
2023-01-07T19:55:59.434Z,100236.28
2023-01-07T19:58:29.028Z,100274.53
2023-01-07T20:01:01.700Z,100273.44
2023-01-07T20:03:30.964Z,100230.09
2023-01-07T20:06:02.783Z,100226.03
2023-01-07T20:08:32.963Z,100168.69
2023-01-07T20:11:00.004Z,100216.34
2023-01-07T20:13:27.979Z,100327.03
2023-01-07T20:15:55.147Z,100172.47
2023-01-07T20:18:22.021Z,100322.47
2023-01-07T20:20:55.748Z,100345.06
2023-01-07T20:23:24.315Z,100162.50
2023-01-07T20:25:51.162Z,100217.69
2023-01-07T20:28:18.825Z,100290.66
2023-01-07T20:30:45.925Z,100294.41
2023-01-07T20:33:12.752Z,100245.94
2023-01-07T20:35:39.768Z,100200.69
2023-01-07T20:38:06.710Z,100303.50
2023-01-07T20:40:37.609Z,100310.50
2023-01-07T20:43:04.818Z,100323.69
2023-01-07T20:45:32.727Z,100172.94
2023-01-07T20:47:59.611Z,100319.13
2023-01-07T20:50:26.602Z,100238.34
2023-01-07T20:52:53.425Z,100283.56
2023-01-07T20:55:20.177Z,100259.59
2023-01-07T20:57:48.461Z,100303.44
2023-01-07T21:00:16.006Z,100190.44
2023-01-07T21:02:43.033Z,100252.31
2023-01-07T21:05:10.221Z,100119.63
2023-01-07T21:07:37.101Z,100295.63
2023-01-07T21:10:04.787Z,100176.63
2023-01-07T21:12:32.384Z,100252.19
2023-01-07T21:15:02.472Z,100249.50
2023-01-07T21:17:29.309Z,100100.72
2023-01-07T21:19:56.163Z,100127.91
2023-01-07T21:22:23.068Z,100264.03
2023-01-07T21:24:49.873Z,100285.03
2023-01-07T21:27:16.688Z,100282.88
2023-01-07T21:29:44.004Z,100229.25
2023-01-07T21:32:12.142Z,100140.75
2023-01-07T21:34:39.028Z,100249.41
2023-01-07T21:37:05.762Z,100187.53
2023-01-07T21:39:32.615Z,100203.97
2023-01-07T21:41:59.502Z,100096.94
2023-01-07T21:44:26.451Z,100226.34
2023-01-07T21:46:53.183Z,100086.97
2023-01-07T21:49:21.513Z,100259.09
2023-01-07T21:51:50.651Z,100260.22
2023-01-07T21:54:17.643Z,100262.94
2023-01-07T21:56:44.561Z,100234.94
2023-01-07T21:59:11.341Z,100272.09
2023-01-07T22:01:39.365Z,100193.75
2023-01-07T22:04:07.068Z,100186.06
2023-01-07T22:06:36.168Z,100264.25
2023-01-07T22:09:06.575Z,100173.03
2023-01-07T22:11:35.485Z,100242.97
2023-01-07T22:14:04.836Z,100252.13
2023-01-07T22:16:33.059Z,100127.84
2023-01-07T22:19:00.460Z,100154.75
2023-01-07T22:21:27.291Z,100263.19
2023-01-07T22:23:55.497Z,100107.44
2023-01-07T22:26:22.907Z,100242.75
2023-01-07T22:28:53.298Z,100161.75
2023-01-07T22:31:22.429Z,100242.44
2023-01-07T22:33:50.514Z,100231.66
2023-01-07T22:36:20.465Z,100244.59
2023-01-07T22:38:48.001Z,100253.19
2023-01-07T22:41:16.253Z,100251.03
2023-01-07T22:43:43.120Z,100125.19
2023-01-07T22:46:15.765Z,100131.06
2023-01-07T22:48:42.830Z,100260.16
2023-01-07T22:51:15.716Z,100258.00
2023-01-07T22:53:42.864Z,100248.84
2023-01-07T22:56:10.612Z,100114.34
2023-01-07T22:58:38.697Z,100237.53
2023-01-07T23:01:12.442Z,100241.53
2023-01-07T23:03:40.335Z,100157.09
2023-01-07T23:06:08.397Z,100177.81
2023-01-07T23:08:35.257Z,100200.91
2023-01-07T23:11:02.112Z,100241.78
2023-01-07T23:13:28.891Z,100157.31
2023-01-07T23:15:59.830Z,100212.44
2023-01-07T23:18:26.693Z,100194.19
2023-01-07T23:20:55.031Z,100102.50
2023-01-07T23:23:21.853Z,100117.78
2023-01-07T23:25:50.306Z,100127.22
2023-01-07T23:28:18.462Z,100230.25
2023-01-07T23:30:46.319Z,100234.00
2023-01-07T23:33:17.112Z,100230.25
2023-01-07T23:35:44.123Z,100116.47
2023-01-07T23:38:11.416Z,100174.63
2023-01-07T23:40:38.146Z,100110.81
2023-01-07T23:43:04.897Z,100216.53
2023-01-07T23:45:31.889Z,100089.09
2023-01-07T23:47:59.046Z,100151.97
2023-01-07T23:50:30.899Z,100173.47
2023-01-07T23:52:58.342Z,100103.81
2023-01-07T23:55:25.115Z,100147.94
2023-01-07T23:57:51.979Z,100222.41
